sensor_id;sensor_type;location;lat;lon;timestamp;P1;durP1;ratioP1;P2;durP2;ratioP2
72319;SDS011;60269;52.502;16.732;2022-12-07T00:02:46;15.98;;;4.55;;
72319;SDS011;60269;52.502;16.732;2022-12-07T00:06:18;15.90;;;4.80;;
72319;SDS011;60269;52.502;16.732;2022-12-07T00:09:51;21.87;;;6.07;;
72319;SDS011;60269;52.502;16.732;2022-12-07T00:13:23;20.70;;;4.85;;
72319;SDS011;60269;52.502;16.732;2022-12-07T00:16:54;17.42;;;5.60;;
72319;SDS011;60269;52.502;16.732;2022-12-07T00:20:26;10.30;;;3.80;;
72319;SDS011;60269;52.502;16.732;2022-12-07T00:23:58;14.17;;;4.73;;
72319;SDS011;60269;52.502;16.732;2022-12-07T00:27:32;22.95;;;6.30;;
72319;SDS011;60269;52.502;16.732;2022-12-07T00:31:05;19.88;;;6.07;;
72319;SDS011;60269;52.502;16.732;2022-12-07T00:34:39;12.43;;;4.30;;
72319;SDS011;60269;52.502;16.732;2022-12-07T00:38:11;19.88;;;6.22;;
72319;SDS011;60269;52.502;16.732;2022-12-07T00:41:43;11.07;;;3.88;;
72319;SDS011;60269;52.502;16.732;2022-12-07T00:45:15;16.57;;;4.63;;
72319;SDS011;60269;52.502;16.732;2022-12-07T00:48:47;13.23;;;3.70;;
72319;SDS011;60269;52.502;16.732;2022-12-07T00:52:20;15.70;;;5.38;;
72319;SDS011;60269;52.502;16.732;2022-12-07T00:55:52;13.52;;;4.07;;
72319;SDS011;60269;52.502;16.732;2022-12-07T00:59:24;16.20;;;6.30;;
72319;SDS011;60269;52.502;16.732;2022-12-07T01:02:56;17.75;;;5.65;;
72319;SDS011;60269;52.502;16.732;2022-12-07T01:06:28;13.88;;;4.50;;
72319;SDS011;60269;52.502;16.732;2022-12-07T01:10:01;14.00;;;4.87;;
72319;SDS011;60269;52.502;16.732;2022-12-07T01:13:34;16.58;;;6.20;;
72319;SDS011;60269;52.502;16.732;2022-12-07T01:17:07;15.10;;;4.75;;
72319;SDS011;60269;52.502;16.732;2022-12-07T01:20:39;18.23;;;5.63;;
72319;SDS011;60269;52.502;16.732;2022-12-07T01:24:11;11.90;;;4.10;;
72319;SDS011;60269;52.502;16.732;2022-12-07T01:27:43;15.48;;;5.28;;
72319;SDS011;60269;52.502;16.732;2022-12-07T01:31:17;13.18;;;4.38;;
72319;SDS011;60269;52.502;16.732;2022-12-07T01:34:50;13.80;;;5.00;;
72319;SDS011;60269;52.502;16.732;2022-12-07T01:38:22;14.93;;;4.90;;
72319;SDS011;60269;52.502;16.732;2022-12-07T01:41:54;16.52;;;5.25;;
72319;SDS011;60269;52.502;16.732;2022-12-07T01:45:39;14.97;;;5.17;;
72319;SDS011;60269;52.502;16.732;2022-12-07T01:49:14;15.70;;;5.00;;
72319;SDS011;60269;52.502;16.732;2022-12-07T01:52:49;9.80;;;2.85;;
72319;SDS011;60269;52.502;16.732;2022-12-07T01:56:24;14.53;;;4.47;;
72319;SDS011;60269;52.502;16.732;2022-12-07T01:59:59;12.65;;;3.55;;
72319;SDS011;60269;52.502;16.732;2022-12-07T02:03:37;14.98;;;4.90;;
72319;SDS011;60269;52.502;16.732;2022-12-07T02:07:11;12.98;;;4.50;;
72319;SDS011;60269;52.502;16.732;2022-12-07T02:10:43;12.33;;;4.53;;
72319;SDS011;60269;52.502;16.732;2022-12-07T02:14:15;11.05;;;3.53;;
72319;SDS011;60269;52.502;16.732;2022-12-07T02:17:53;14.15;;;4.32;;
72319;SDS011;60269;52.502;16.732;2022-12-07T02:21:35;13.17;;;3.77;;
72319;SDS011;60269;52.502;16.732;2022-12-07T02:29:27;10.48;;;3.75;;
72319;SDS011;60269;52.502;16.732;2022-12-07T02:33:11;7.87;;;2.13;;
72319;SDS011;60269;52.502;16.732;2022-12-07T02:36:51;11.70;;;3.90;;
72319;SDS011;60269;52.502;16.732;2022-12-07T02:40:38;13.45;;;3.08;;
72319;SDS011;60269;52.502;16.732;2022-12-07T02:44:16;10.77;;;3.53;;
72319;SDS011;60269;52.502;16.732;2022-12-07T02:47:51;11.63;;;3.80;;
72319;SDS011;60269;52.502;16.732;2022-12-07T02:51:29;11.38;;;3.75;;
72319;SDS011;60269;52.502;16.732;2022-12-07T02:55:02;9.57;;;3.03;;
72319;SDS011;60269;52.502;16.732;2022-12-07T02:58:57;8.43;;;2.30;;
72319;SDS011;60269;52.502;16.732;2022-12-07T03:03:03;10.07;;;2.85;;
72319;SDS011;60269;52.502;16.732;2022-12-07T03:06:41;9.77;;;2.63;;
72319;SDS011;60269;52.502;16.732;2022-12-07T03:14:15;10.15;;;3.28;;
72319;SDS011;60269;52.502;16.732;2022-12-07T03:17:53;12.50;;;3.83;;
72319;SDS011;60269;52.502;16.732;2022-12-07T03:21:32;11.60;;;3.35;;
72319;SDS011;60269;52.502;16.732;2022-12-07T03:25:09;11.17;;;3.30;;
72319;SDS011;60269;52.502;16.732;2022-12-07T03:28:47;8.32;;;2.75;;
72319;SDS011;60269;52.502;16.732;2022-12-07T03:32:43;11.30;;;3.63;;
72319;SDS011;60269;52.502;16.732;2022-12-07T03:40:07;10.38;;;3.05;;
72319;SDS011;60269;52.502;16.732;2022-12-07T03:43:45;10.18;;;2.95;;
72319;SDS011;60269;52.502;16.732;2022-12-07T03:54:40;11.63;;;3.95;;
72319;SDS011;60269;52.502;16.732;2022-12-07T03:58:17;9.73;;;2.88;;
72319;SDS011;60269;52.502;16.732;2022-12-07T04:01:53;10.50;;;3.43;;
72319;SDS011;60269;52.502;16.732;2022-12-07T04:05:26;10.52;;;3.50;;
72319;SDS011;60269;52.502;16.732;2022-12-07T04:08:58;11.20;;;3.05;;
72319;SDS011;60269;52.502;16.732;2022-12-07T04:12:30;11.10;;;3.50;;
72319;SDS011;60269;52.502;16.732;2022-12-07T04:16:02;10.98;;;3.97;;
72319;SDS011;60269;52.502;16.732;2022-12-07T04:19:34;11.35;;;4.20;;
72319;SDS011;60269;52.502;16.732;2022-12-07T04:23:07;13.40;;;4.37;;
72319;SDS011;60269;52.502;16.732;2022-12-07T04:26:39;13.32;;;4.53;;
72319;SDS011;60269;52.502;16.732;2022-12-07T04:30:11;11.35;;;4.47;;
72319;SDS011;60269;52.502;16.732;2022-12-07T04:33:43;13.40;;;4.90;;
72319;SDS011;60269;52.502;16.732;2022-12-07T04:37:15;12.53;;;3.80;;
72319;SDS011;60269;52.502;16.732;2022-12-07T04:40:48;14.82;;;4.97;;
72319;SDS011;60269;52.502;16.732;2022-12-07T04:44:20;11.82;;;4.15;;
72319;SDS011;60269;52.502;16.732;2022-12-07T04:47:53;14.67;;;4.73;;
72319;SDS011;60269;52.502;16.732;2022-12-07T04:51:26;14.75;;;4.63;;
72319;SDS011;60269;52.502;16.732;2022-12-07T04:55:00;14.55;;;4.93;;
72319;SDS011;60269;52.502;16.732;2022-12-07T04:58:32;13.77;;;5.10;;
72319;SDS011;60269;52.502;16.732;2022-12-07T05:02:05;14.45;;;4.40;;
72319;SDS011;60269;52.502;16.732;2022-12-07T05:05:40;15.27;;;4.82;;
72319;SDS011;60269;52.502;16.732;2022-12-07T05:09:13;13.02;;;4.30;;
72319;SDS011;60269;52.502;16.732;2022-12-07T05:12:45;13.13;;;4.80;;
72319;SDS011;60269;52.502;16.732;2022-12-07T05:16:18;11.13;;;4.35;;
72319;SDS011;60269;52.502;16.732;2022-12-07T05:19:50;11.57;;;4.32;;
72319;SDS011;60269;52.502;16.732;2022-12-07T05:23:22;13.93;;;4.20;;
72319;SDS011;60269;52.502;16.732;2022-12-07T05:26:55;13.35;;;4.28;;
72319;SDS011;60269;52.502;16.732;2022-12-07T05:30:27;9.57;;;2.40;;
72319;SDS011;60269;52.502;16.732;2022-12-07T05:33:59;8.90;;;2.70;;
72319;SDS011;60269;52.502;16.732;2022-12-07T05:37:31;13.52;;;4.00;;
72319;SDS011;60269;52.502;16.732;2022-12-07T05:41:03;14.05;;;4.57;;
72319;SDS011;60269;52.502;16.732;2022-12-07T05:44:37;12.73;;;4.38;;
72319;SDS011;60269;52.502;16.732;2022-12-07T05:48:09;11.60;;;3.83;;
72319;SDS011;60269;52.502;16.732;2022-12-07T05:51:41;12.40;;;3.75;;
72319;SDS011;60269;52.502;16.732;2022-12-07T05:55:13;11.65;;;3.65;;
72319;SDS011;60269;52.502;16.732;2022-12-07T05:58:46;12.50;;;3.17;;
72319;SDS011;60269;52.502;16.732;2022-12-07T06:02:36;12.02;;;3.85;;
72319;SDS011;60269;52.502;16.732;2022-12-07T06:06:08;9.13;;;2.50;;
72319;SDS011;60269;52.502;16.732;2022-12-07T06:09:40;9.43;;;3.23;;
72319;SDS011;60269;52.502;16.732;2022-12-07T06:13:12;10.82;;;2.92;;
72319;SDS011;60269;52.502;16.732;2022-12-07T06:16:44;10.55;;;3.33;;
72319;SDS011;60269;52.502;16.732;2022-12-07T06:20:16;10.05;;;3.00;;
72319;SDS011;60269;52.502;16.732;2022-12-07T06:23:48;11.30;;;3.10;;
72319;SDS011;60269;52.502;16.732;2022-12-07T06:27:20;13.52;;;4.18;;
72319;SDS011;60269;52.502;16.732;2022-12-07T06:30:58;9.15;;;2.60;;
72319;SDS011;60269;52.502;16.732;2022-12-07T06:34:31;12.80;;;4.17;;
72319;SDS011;60269;52.502;16.732;2022-12-07T06:38:03;11.93;;;3.37;;
72319;SDS011;60269;52.502;16.732;2022-12-07T06:41:36;10.43;;;2.93;;
72319;SDS011;60269;52.502;16.732;2022-12-07T06:45:11;13.07;;;3.08;;
72319;SDS011;60269;52.502;16.732;2022-12-07T06:48:43;10.95;;;2.88;;
72319;SDS011;60269;52.502;16.732;2022-12-07T06:52:15;9.40;;;2.43;;
72319;SDS011;60269;52.502;16.732;2022-12-07T06:55:47;9.13;;;2.80;;
72319;SDS011;60269;52.502;16.732;2022-12-07T06:59:19;11.18;;;2.58;;
72319;SDS011;60269;52.502;16.732;2022-12-07T07:02:51;10.03;;;2.83;;
72319;SDS011;60269;52.502;16.732;2022-12-07T07:06:23;7.55;;;1.75;;
72319;SDS011;60269;52.502;16.732;2022-12-07T07:09:55;12.70;;;3.47;;
72319;SDS011;60269;52.502;16.732;2022-12-07T07:13:27;8.48;;;2.53;;
72319;SDS011;60269;52.502;16.732;2022-12-07T07:16:59;10.50;;;3.40;;
72319;SDS011;60269;52.502;16.732;2022-12-07T07:20:31;8.20;;;2.35;;
72319;SDS011;60269;52.502;16.732;2022-12-07T07:24:03;9.93;;;2.67;;
72319;SDS011;60269;52.502;16.732;2022-12-07T07:27:35;9.67;;;2.60;;
72319;SDS011;60269;52.502;16.732;2022-12-07T07:31:07;4.97;;;1.73;;
72319;SDS011;60269;52.502;16.732;2022-12-07T07:34:39;5.60;;;1.20;;
72319;SDS011;60269;52.502;16.732;2022-12-07T07:38:11;9.17;;;2.23;;
72319;SDS011;60269;52.502;16.732;2022-12-07T07:41:43;5.03;;;1.08;;
72319;SDS011;60269;52.502;16.732;2022-12-07T07:45:15;4.35;;;1.17;;
72319;SDS011;60269;52.502;16.732;2022-12-07T07:48:47;5.00;;;1.73;;
72319;SDS011;60269;52.502;16.732;2022-12-07T07:52:19;4.63;;;1.30;;
72319;SDS011;60269;52.502;16.732;2022-12-07T07:55:52;6.57;;;1.63;;
72319;SDS011;60269;52.502;16.732;2022-12-07T07:59:25;4.25;;;0.98;;
72319;SDS011;60269;52.502;16.732;2022-12-07T08:02:57;4.03;;;1.33;;
72319;SDS011;60269;52.502;16.732;2022-12-07T08:06:28;8.88;;;1.45;;
72319;SDS011;60269;52.502;16.732;2022-12-07T08:10:03;4.55;;;1.42;;
72319;SDS011;60269;52.502;16.732;2022-12-07T08:13:36;9.53;;;2.27;;
72319;SDS011;60269;52.502;16.732;2022-12-07T08:17:07;5.30;;;1.15;;
72319;SDS011;60269;52.502;16.732;2022-12-07T08:20:40;6.82;;;1.75;;
72319;SDS011;60269;52.502;16.732;2022-12-07T08:24:13;8.80;;;2.42;;
72319;SDS011;60269;52.502;16.732;2022-12-07T08:27:45;6.10;;;1.73;;
72319;SDS011;60269;52.502;16.732;2022-12-07T08:31:17;5.00;;;1.10;;
72319;SDS011;60269;52.502;16.732;2022-12-07T08:34:51;10.65;;;2.28;;
72319;SDS011;60269;52.502;16.732;2022-12-07T08:38:24;10.30;;;2.57;;
72319;SDS011;60269;52.502;16.732;2022-12-07T08:42:02;10.75;;;2.97;;
72319;SDS011;60269;52.502;16.732;2022-12-07T08:45:34;11.43;;;3.42;;
72319;SDS011;60269;52.502;16.732;2022-12-07T08:49:17;9.47;;;2.97;;
72319;SDS011;60269;52.502;16.732;2022-12-07T08:52:53;7.30;;;2.13;;
72319;SDS011;60269;52.502;16.732;2022-12-07T08:56:28;13.48;;;3.10;;
72319;SDS011;60269;52.502;16.732;2022-12-07T09:00:00;10.95;;;3.05;;
72319;SDS011;60269;52.502;16.732;2022-12-07T09:03:33;9.77;;;2.77;;
72319;SDS011;60269;52.502;16.732;2022-12-07T09:07:05;13.15;;;3.22;;
72319;SDS011;60269;52.502;16.732;2022-12-07T09:10:37;12.75;;;3.20;;
72319;SDS011;60269;52.502;16.732;2022-12-07T09:14:10;16.10;;;5.10;;
72319;SDS011;60269;52.502;16.732;2022-12-07T09:17:42;10.70;;;3.47;;
72319;SDS011;60269;52.502;16.732;2022-12-07T09:21:13;12.55;;;4.65;;
72319;SDS011;60269;52.502;16.732;2022-12-07T09:24:45;13.70;;;4.83;;
72319;SDS011;60269;52.502;16.732;2022-12-07T09:28:17;11.63;;;3.97;;
72319;SDS011;60269;52.502;16.732;2022-12-07T09:31:50;25.83;;;10.10;;
72319;SDS011;60269;52.502;16.732;2022-12-07T09:35:23;14.20;;;5.47;;
72319;SDS011;60269;52.502;16.732;2022-12-07T09:38:56;15.17;;;6.47;;
72319;SDS011;60269;52.502;16.732;2022-12-07T09:42:37;15.20;;;5.65;;
72319;SDS011;60269;52.502;16.732;2022-12-07T09:46:13;13.57;;;4.32;;
72319;SDS011;60269;52.502;16.732;2022-12-07T09:49:48;12.90;;;4.20;;
72319;SDS011;60269;52.502;16.732;2022-12-07T09:53:22;13.68;;;5.57;;
72319;SDS011;60269;52.502;16.732;2022-12-07T09:56:58;18.02;;;7.03;;
72319;SDS011;60269;52.502;16.732;2022-12-07T10:00:30;12.97;;;5.50;;
72319;SDS011;60269;52.502;16.732;2022-12-07T10:04:09;9.52;;;3.78;;
72319;SDS011;60269;52.502;16.732;2022-12-07T10:07:56;16.75;;;6.82;;
72319;SDS011;60269;52.502;16.732;2022-12-07T10:11:28;16.40;;;3.90;;
72319;SDS011;60269;52.502;16.732;2022-12-07T10:15:01;11.10;;;4.00;;
72319;SDS011;60269;52.502;16.732;2022-12-07T10:18:48;15.13;;;5.47;;
72319;SDS011;60269;52.502;16.732;2022-12-07T10:22:20;16.73;;;5.45;;
72319;SDS011;60269;52.502;16.732;2022-12-07T10:25:56;11.57;;;4.13;;
72319;SDS011;60269;52.502;16.732;2022-12-07T10:29:32;6.45;;;2.33;;
72319;SDS011;60269;52.502;16.732;2022-12-07T10:33:15;10.43;;;3.70;;
72319;SDS011;60269;52.502;16.732;2022-12-07T10:40:40;14.60;;;3.72;;
72319;SDS011;60269;52.502;16.732;2022-12-07T10:44:21;16.98;;;4.88;;
72319;SDS011;60269;52.502;16.732;2022-12-07T10:48:06;9.82;;;3.28;;
72319;SDS011;60269;52.502;16.732;2022-12-07T11:07:47;7.15;;;2.47;;
72319;SDS011;60269;52.502;16.732;2022-12-07T11:22:26;14.30;;;5.05;;
72319;SDS011;60269;52.502;16.732;2022-12-07T11:30:08;15.80;;;6.37;;
72319;SDS011;60269;52.502;16.732;2022-12-07T11:33:52;17.33;;;5.88;;
72319;SDS011;60269;52.502;16.732;2022-12-07T11:37:31;10.70;;;3.72;;
72319;SDS011;60269;52.502;16.732;2022-12-07T11:41:10;12.83;;;3.83;;
72319;SDS011;60269;52.502;16.732;2022-12-07T11:48:50;8.85;;;2.83;;
72319;SDS011;60269;52.502;16.732;2022-12-07T11:52:32;14.87;;;5.00;;
72319;SDS011;60269;52.502;16.732;2022-12-07T11:56:16;15.18;;;5.32;;
72319;SDS011;60269;52.502;16.732;2022-12-07T11:59:52;16.80;;;5.32;;
72319;SDS011;60269;52.502;16.732;2022-12-07T12:03:30;18.95;;;6.15;;
72319;SDS011;60269;52.502;16.732;2022-12-07T12:07:06;13.47;;;3.87;;
72319;SDS011;60269;52.502;16.732;2022-12-07T12:22:30;12.70;;;5.13;;
72319;SDS011;60269;52.502;16.732;2022-12-07T12:26:14;15.95;;;5.30;;
72319;SDS011;60269;52.502;16.732;2022-12-07T12:29:52;12.80;;;3.70;;
72319;SDS011;60269;52.502;16.732;2022-12-07T12:33:27;11.45;;;4.03;;
72319;SDS011;60269;52.502;16.732;2022-12-07T12:37:01;11.85;;;3.33;;
72319;SDS011;60269;52.502;16.732;2022-12-07T12:51:36;14.77;;;4.60;;
72319;SDS011;60269;52.502;16.732;2022-12-07T12:58:40;9.07;;;2.30;;
72319;SDS011;60269;52.502;16.732;2022-12-07T13:06:46;8.83;;;2.93;;
72319;SDS011;60269;52.502;16.732;2022-12-07T13:09:59;8.07;;;2.42;;
72319;SDS011;60269;52.502;16.732;2022-12-07T13:13:33;7.70;;;2.33;;
72319;SDS011;60269;52.502;16.732;2022-12-07T13:17:10;6.90;;;1.50;;
72319;SDS011;60269;52.502;16.732;2022-12-07T13:20:53;8.60;;;2.33;;
72319;SDS011;60269;52.502;16.732;2022-12-07T13:24:29;8.30;;;2.72;;
72319;SDS011;60269;52.502;16.732;2022-12-07T13:28:16;5.25;;;1.33;;
72319;SDS011;60269;52.502;16.732;2022-12-07T13:31:54;9.50;;;2.07;;
72319;SDS011;60269;52.502;16.732;2022-12-07T13:35:29;6.70;;;1.67;;
72319;SDS011;60269;52.502;16.732;2022-12-07T13:39:17;11.30;;;3.38;;
72319;SDS011;60269;52.502;16.732;2022-12-07T13:42:58;9.07;;;2.67;;
72319;SDS011;60269;52.502;16.732;2022-12-07T13:46:41;12.45;;;2.78;;
72319;SDS011;60269;52.502;16.732;2022-12-07T13:50:33;7.65;;;2.00;;
72319;SDS011;60269;52.502;16.732;2022-12-07T13:54:09;6.78;;;1.92;;
72319;SDS011;60269;52.502;16.732;2022-12-07T13:57:43;7.80;;;2.57;;
72319;SDS011;60269;52.502;16.732;2022-12-07T14:01:18;6.72;;;1.55;;
72319;SDS011;60269;52.502;16.732;2022-12-07T14:04:50;7.90;;;2.40;;
72319;SDS011;60269;52.502;16.732;2022-12-07T14:08:23;8.63;;;2.13;;
72319;SDS011;60269;52.502;16.732;2022-12-07T14:11:56;6.93;;;1.90;;
72319;SDS011;60269;52.502;16.732;2022-12-07T14:15:30;6.20;;;1.45;;
72319;SDS011;60269;52.502;16.732;2022-12-07T14:19:05;9.07;;;2.03;;
72319;SDS011;60269;52.502;16.732;2022-12-07T14:22:57;9.40;;;3.17;;
72319;SDS011;60269;52.502;16.732;2022-12-07T14:26:29;9.13;;;3.28;;
72319;SDS011;60269;52.502;16.732;2022-12-07T14:30:02;8.45;;;2.70;;
72319;SDS011;60269;52.502;16.732;2022-12-07T14:33:36;10.70;;;2.83;;
72319;SDS011;60269;52.502;16.732;2022-12-07T14:37:09;8.35;;;2.63;;
72319;SDS011;60269;52.502;16.732;2022-12-07T14:40:41;8.02;;;2.58;;
72319;SDS011;60269;52.502;16.732;2022-12-07T14:44:14;9.50;;;3.43;;
72319;SDS011;60269;52.502;16.732;2022-12-07T14:47:57;7.72;;;2.75;;
72319;SDS011;60269;52.502;16.732;2022-12-07T14:51:49;10.00;;;2.92;;
72319;SDS011;60269;52.502;16.732;2022-12-07T14:55:41;10.50;;;2.40;;
72319;SDS011;60269;52.502;16.732;2022-12-07T14:59:14;8.98;;;2.50;;
72319;SDS011;60269;52.502;16.732;2022-12-07T15:02:46;8.10;;;2.83;;
72319;SDS011;60269;52.502;16.732;2022-12-07T15:06:20;5.32;;;1.40;;
72319;SDS011;60269;52.502;16.732;2022-12-07T15:09:51;5.73;;;1.47;;
72319;SDS011;60269;52.502;16.732;2022-12-07T15:13:23;7.05;;;2.25;;
72319;SDS011;60269;52.502;16.732;2022-12-07T15:17:14;7.57;;;2.20;;
72319;SDS011;60269;52.502;16.732;2022-12-07T15:20:58;5.93;;;1.50;;
72319;SDS011;60269;52.502;16.732;2022-12-07T15:24:30;8.57;;;2.13;;
72319;SDS011;60269;52.502;16.732;2022-12-07T15:28:02;8.23;;;1.73;;
72319;SDS011;60269;52.502;16.732;2022-12-07T15:31:35;9.07;;;2.10;;
72319;SDS011;60269;52.502;16.732;2022-12-07T15:35:26;6.18;;;1.63;;
72319;SDS011;60269;52.502;16.732;2022-12-07T15:38:58;5.85;;;1.50;;
72319;SDS011;60269;52.502;16.732;2022-12-07T15:42:46;6.13;;;1.67;;
72319;SDS011;60269;52.502;16.732;2022-12-07T15:46:18;5.90;;;1.90;;
72319;SDS011;60269;52.502;16.732;2022-12-07T15:49:50;6.78;;;1.80;;
72319;SDS011;60269;52.502;16.732;2022-12-07T15:53:22;5.65;;;1.80;;
72319;SDS011;60269;52.502;16.732;2022-12-07T15:56:55;4.27;;;1.17;;
72319;SDS011;60269;52.502;16.732;2022-12-07T16:00:28;4.38;;;0.98;;
72319;SDS011;60269;52.502;16.732;2022-12-07T16:04:00;5.68;;;1.40;;
72319;SDS011;60269;52.502;16.732;2022-12-07T16:07:32;6.43;;;1.43;;
72319;SDS011;60269;52.502;16.732;2022-12-07T16:11:07;5.40;;;0.93;;
72319;SDS011;60269;52.502;16.732;2022-12-07T16:14:39;4.57;;;0.90;;
72319;SDS011;60269;52.502;16.732;2022-12-07T16:18:12;4.93;;;1.30;;
72319;SDS011;60269;52.502;16.732;2022-12-07T16:21:44;3.90;;;1.13;;
72319;SDS011;60269;52.502;16.732;2022-12-07T16:25:17;3.75;;;0.80;;
72319;SDS011;60269;52.502;16.732;2022-12-07T16:28:49;5.18;;;1.48;;
72319;SDS011;60269;52.502;16.732;2022-12-07T16:32:22;5.47;;;1.60;;
72319;SDS011;60269;52.502;16.732;2022-12-07T16:35:54;6.68;;;1.48;;
72319;SDS011;60269;52.502;16.732;2022-12-07T16:39:26;4.90;;;1.25;;
72319;SDS011;60269;52.502;16.732;2022-12-07T16:42:59;4.60;;;0.90;;
72319;SDS011;60269;52.502;16.732;2022-12-07T16:46:33;6.35;;;1.50;;
72319;SDS011;60269;52.502;16.732;2022-12-07T16:50:07;5.22;;;1.13;;
72319;SDS011;60269;52.502;16.732;2022-12-07T16:53:40;7.10;;;1.70;;
72319;SDS011;60269;52.502;16.732;2022-12-07T16:57:13;4.50;;;1.93;;
72319;SDS011;60269;52.502;16.732;2022-12-07T17:00:52;7.82;;;1.73;;
72319;SDS011;60269;52.502;16.732;2022-12-07T17:04:24;7.32;;;1.58;;
72319;SDS011;60269;52.502;16.732;2022-12-07T17:08:01;6.80;;;1.33;;
72319;SDS011;60269;52.502;16.732;2022-12-07T17:11:35;5.20;;;1.10;;
72319;SDS011;60269;52.502;16.732;2022-12-07T17:15:08;5.95;;;1.17;;
72319;SDS011;60269;52.502;16.732;2022-12-07T17:18:49;5.97;;;1.20;;
72319;SDS011;60269;52.502;16.732;2022-12-07T17:22:21;8.80;;;2.00;;
72319;SDS011;60269;52.502;16.732;2022-12-07T17:25:53;9.20;;;2.03;;
72319;SDS011;60269;52.502;16.732;2022-12-07T17:29:26;7.40;;;2.50;;
72319;SDS011;60269;52.502;16.732;2022-12-07T17:32:57;5.97;;;1.27;;
72319;SDS011;60269;52.502;16.732;2022-12-07T17:36:30;7.68;;;1.67;;
72319;SDS011;60269;52.502;16.732;2022-12-07T17:40:03;7.38;;;1.58;;
72319;SDS011;60269;52.502;16.732;2022-12-07T17:43:36;7.23;;;1.70;;
72319;SDS011;60269;52.502;16.732;2022-12-07T17:47:09;7.47;;;1.77;;
72319;SDS011;60269;52.502;16.732;2022-12-07T17:50:41;9.13;;;2.10;;
72319;SDS011;60269;52.502;16.732;2022-12-07T17:54:34;7.67;;;1.77;;
72319;SDS011;60269;52.502;16.732;2022-12-07T17:58:06;6.45;;;1.33;;
72319;SDS011;60269;52.502;16.732;2022-12-07T18:01:38;5.38;;;1.30;;
72319;SDS011;60269;52.502;16.732;2022-12-07T18:05:11;6.63;;;1.45;;
72319;SDS011;60269;52.502;16.732;2022-12-07T18:08:43;10.17;;;2.20;;
72319;SDS011;60269;52.502;16.732;2022-12-07T18:12:15;6.32;;;1.27;;
72319;SDS011;60269;52.502;16.732;2022-12-07T18:15:47;8.32;;;2.25;;
72319;SDS011;60269;52.502;16.732;2022-12-07T18:19:19;3.10;;;0.83;;
72319;SDS011;60269;52.502;16.732;2022-12-07T18:22:50;10.65;;;1.73;;
72319;SDS011;60269;52.502;16.732;2022-12-07T18:26:23;6.30;;;2.47;;
72319;SDS011;60269;52.502;16.732;2022-12-07T18:29:56;8.70;;;2.57;;
72319;SDS011;60269;52.502;16.732;2022-12-07T18:33:32;9.57;;;2.85;;
72319;SDS011;60269;52.502;16.732;2022-12-07T18:37:04;5.78;;;1.70;;
72319;SDS011;60269;52.502;16.732;2022-12-07T18:40:46;7.43;;;2.00;;
72319;SDS011;60269;52.502;16.732;2022-12-07T18:44:25;7.70;;;2.07;;
72319;SDS011;60269;52.502;16.732;2022-12-07T18:47:57;6.22;;;1.30;;
72319;SDS011;60269;52.502;16.732;2022-12-07T18:51:29;5.05;;;1.23;;
72319;SDS011;60269;52.502;16.732;2022-12-07T18:55:03;4.23;;;0.60;;
72319;SDS011;60269;52.502;16.732;2022-12-07T18:58:36;6.07;;;1.63;;
72319;SDS011;60269;52.502;16.732;2022-12-07T19:02:08;3.17;;;1.02;;
72319;SDS011;60269;52.502;16.732;2022-12-07T19:05:43;7.07;;;1.20;;
72319;SDS011;60269;52.502;16.732;2022-12-07T19:09:15;6.68;;;1.17;;
72319;SDS011;60269;52.502;16.732;2022-12-07T19:12:47;9.32;;;2.33;;
72319;SDS011;60269;52.502;16.732;2022-12-07T19:16:19;11.23;;;4.30;;
72319;SDS011;60269;52.502;16.732;2022-12-07T19:19:51;11.03;;;3.10;;
72319;SDS011;60269;52.502;16.732;2022-12-07T19:23:23;7.00;;;2.70;;
72319;SDS011;60269;52.502;16.732;2022-12-07T19:26:58;7.07;;;1.70;;
72319;SDS011;60269;52.502;16.732;2022-12-07T19:30:30;9.93;;;2.17;;
72319;SDS011;60269;52.502;16.732;2022-12-07T19:34:13;9.93;;;2.17;;
72319;SDS011;60269;52.502;16.732;2022-12-07T19:37:49;7.72;;;2.00;;
72319;SDS011;60269;52.502;16.732;2022-12-07T19:41:21;2.67;;;0.60;;
72319;SDS011;60269;52.502;16.732;2022-12-07T19:45:05;7.03;;;1.45;;
72319;SDS011;60269;52.502;16.732;2022-12-07T19:48:37;5.22;;;1.13;;
72319;SDS011;60269;52.502;16.732;2022-12-07T19:52:10;5.65;;;0.68;;
72319;SDS011;60269;52.502;16.732;2022-12-07T19:55:43;10.07;;;2.93;;
72319;SDS011;60269;52.502;16.732;2022-12-07T19:59:16;5.35;;;0.73;;
72319;SDS011;60269;52.502;16.732;2022-12-07T20:02:50;3.47;;;0.90;;
72319;SDS011;60269;52.502;16.732;2022-12-07T20:06:22;4.60;;;0.83;;
72319;SDS011;60269;52.502;16.732;2022-12-07T20:09:55;9.38;;;0.85;;
72319;SDS011;60269;52.502;16.732;2022-12-07T20:13:27;3.00;;;1.08;;
72319;SDS011;60269;52.502;16.732;2022-12-07T20:16:59;3.97;;;1.17;;
72319;SDS011;60269;52.502;16.732;2022-12-07T20:20:32;3.92;;;0.80;;
72319;SDS011;60269;52.502;16.732;2022-12-07T20:24:05;5.28;;;1.15;;
72319;SDS011;60269;52.502;16.732;2022-12-07T20:27:38;4.55;;;0.80;;
72319;SDS011;60269;52.502;16.732;2022-12-07T20:31:11;2.53;;;0.40;;
72319;SDS011;60269;52.502;16.732;2022-12-07T20:34:45;4.93;;;0.85;;
72319;SDS011;60269;52.502;16.732;2022-12-07T20:38:17;2.42;;;0.40;;
72319;SDS011;60269;52.502;16.732;2022-12-07T20:41:49;4.47;;;0.77;;
72319;SDS011;60269;52.502;16.732;2022-12-07T20:45:46;4.15;;;0.95;;
72319;SDS011;60269;52.502;16.732;2022-12-07T20:49:20;2.70;;;0.70;;
72319;SDS011;60269;52.502;16.732;2022-12-07T20:52:53;4.50;;;0.63;;
72319;SDS011;60269;52.502;16.732;2022-12-07T20:56:30;5.22;;;0.77;;
72319;SDS011;60269;52.502;16.732;2022-12-07T21:00:05;3.72;;;1.10;;
72319;SDS011;60269;52.502;16.732;2022-12-07T21:03:39;4.07;;;0.60;;
72319;SDS011;60269;52.502;16.732;2022-12-07T21:07:10;6.77;;;0.70;;
72319;SDS011;60269;52.502;16.732;2022-12-07T21:10:42;3.13;;;0.60;;
72319;SDS011;60269;52.502;16.732;2022-12-07T21:14:14;3.58;;;0.40;;
72319;SDS011;60269;52.502;16.732;2022-12-07T21:17:47;3.37;;;1.23;;
72319;SDS011;60269;52.502;16.732;2022-12-07T21:21:19;2.28;;;0.45;;
72319;SDS011;60269;52.502;16.732;2022-12-07T21:24:51;6.72;;;2.63;;
72319;SDS011;60269;52.502;16.732;2022-12-07T21:28:23;2.30;;;0.40;;
72319;SDS011;60269;52.502;16.732;2022-12-07T21:31:55;7.28;;;1.00;;
72319;SDS011;60269;52.502;16.732;2022-12-07T21:35:27;4.47;;;0.40;;
72319;SDS011;60269;52.502;16.732;2022-12-07T21:38:59;11.73;;;0.60;;
72319;SDS011;60269;52.502;16.732;2022-12-07T21:42:32;2.17;;;0.40;;
72319;SDS011;60269;52.502;16.732;2022-12-07T21:46:04;8.38;;;0.90;;
72319;SDS011;60269;52.502;16.732;2022-12-07T21:49:36;1.08;;;0.20;;
72319;SDS011;60269;52.502;16.732;2022-12-07T21:53:08;1.23;;;0.20;;
72319;SDS011;60269;52.502;16.732;2022-12-07T21:56:40;2.78;;;0.60;;
72319;SDS011;60269;52.502;16.732;2022-12-07T22:00:14;2.95;;;0.35;;
72319;SDS011;60269;52.502;16.732;2022-12-07T22:03:46;2.60;;;0.37;;
72319;SDS011;60269;52.502;16.732;2022-12-07T22:07:19;3.25;;;0.50;;
72319;SDS011;60269;52.502;16.732;2022-12-07T22:10:51;14.93;;;1.38;;
72319;SDS011;60269;52.502;16.732;2022-12-07T22:17:42;1.80;;;0.43;;
72319;SDS011;60269;52.502;16.732;2022-12-07T22:21:14;4.07;;;0.80;;
72319;SDS011;60269;52.502;16.732;2022-12-07T22:24:45;3.92;;;0.68;;
72319;SDS011;60269;52.502;16.732;2022-12-07T22:28:18;1.77;;;0.43;;
72319;SDS011;60269;52.502;16.732;2022-12-07T22:31:50;3.92;;;0.60;;
72319;SDS011;60269;52.502;16.732;2022-12-07T22:35:25;2.78;;;0.38;;
72319;SDS011;60269;52.502;16.732;2022-12-07T22:38:56;2.20;;;0.50;;